This is the latest recevied weather packets stored in our database for station/object EFHKFMI. If no packets are shown the sender has not sent any weather packets the latest 10 day(s).
| Time | Temp. | Humidity | Pressure | Rain* | Wind** | Luminosity | Snow |
|---|---|---|---|---|---|---|---|
| 1777327599 | 1.67° C | 59% | 1016.2 hPa | 0 mm | - | - | - |
| 1777326399 | 1.67° C | 58% | 1016.2 hPa | 0 mm | - | - | - |
| 1777325199 | 1.67° C | 60% | 1016.2 hPa | 0 mm | - | - | - |
| 1777323999 | 1.67° C | 63% | 1016.2 hPa | 0 mm | - | - | - |
| 1777322799 | 1.11° C | 69% | 1016.1 hPa | 0 mm | - | - | - |
| 1777321600 | 1.67° C | 70% | 1016.1 hPa | 0 mm | - | - | - |
| 1777320399 | 1.67° C | 69% | 1015.9 hPa | 0 mm | - | - | - |
| 1777319199 | 1.11° C | 73% | 1015.8 hPa | 0 mm | - | - | - |
| 1777317999 | 1.67° C | 73% | 1015.8 hPa | 0 mm | - | - | - |
| 1777316799 | 1.67° C | 75% | 1015.7 hPa | 0 mm | - | - | - |
| 1777315599 | 1.67° C | 77% | 1015.7 hPa | 0 mm | - | - | - |
| 1777314399 | 2.78° C | 77% | 1015.7 hPa | 0 mm | - | - | - |
| 1777313198 | 2.22° C | 80% | 1015.7 hPa | 0 mm | - | - | - |
| 1777311998 | 3.89° C | 59% | 1015.3 hPa | 0 mm | - | - | - |
| 1777310798 | 3.89° C | 59% | 1015.2 hPa | 0 mm | - | - | - |
| 1777309598 | 3.89° C | 58% | 1015 hPa | 0 mm | - | - | - |
| 1777308398 | 3.89° C | 61% | 1014.8 hPa | 0 mm | - | - | - |
| 1777307198 | 6.11° C | 45% | 1014.2 hPa | 0 mm | - | - | - |
| 1777305998 | 6.11° C | 44% | 1014.1 hPa | 0 mm | - | - | - |
| 1777304798 | 5.56° C | 47% | 1014.1 hPa | 0 mm | - | - | - |
| 1777303598 | 6.11° C | 45% | 1013.8 hPa | 0 mm | - | - | - |
| 1777302398 | 6.67° C | 40% | 1013.7 hPa | 0 mm | - | - | - |
| 1777301198 | 6.67° C | 39% | 1013.7 hPa | 0 mm | - | - | - |
| 1777299998 | 8.33° C | 35% | 1013.6 hPa | 0 mm | - | - | - |
| 1777298798 | 6.11° C | 41% | 1013.7 hPa | 0 mm | - | - | - |
* Rain latest hour (hover to see other rain measurements)
** Current wind speed in m/s (hover to see current wind gust speed)